createdAt,value
2022-07-28T00:01:12.420Z,0.20
2022-07-28T00:03:40.309Z,0.20
2022-07-28T00:06:06.952Z,0.25
2022-07-28T00:08:33.581Z,0.20
2022-07-28T00:11:00.252Z,0.40
2022-07-28T00:13:26.944Z,0.20
2022-07-28T00:15:53.612Z,0.20
2022-07-28T00:18:20.300Z,0.40
2022-07-28T00:20:46.972Z,0.20
2022-07-28T00:23:13.595Z,0.22
2022-07-28T00:25:40.226Z,0.20
2022-07-28T00:28:07.220Z,0.13
2022-07-28T00:30:33.865Z,0.20
2022-07-28T00:33:00.655Z,0.20
2022-07-28T00:35:30.961Z,0.20
2022-07-28T00:37:59.578Z,0.30
2022-07-28T00:40:46.981Z,0.45
2022-07-28T00:43:14.216Z,0.20
2022-07-28T00:45:41.005Z,0.30
2022-07-28T00:48:07.675Z,0.43
2022-07-28T00:50:34.419Z,0.30
2022-07-28T00:53:01.247Z,0.30
2022-07-28T00:55:27.992Z,0.30
2022-07-28T00:57:54.748Z,0.50
2022-07-28T01:00:21.584Z,0.20
2022-07-28T01:02:48.642Z,0.22
2022-07-28T01:05:15.964Z,0.20
2022-07-28T01:08:03.661Z,0.20
2022-07-28T01:10:56.150Z,0.30
2022-07-28T01:13:45.236Z,0.30
2022-07-28T01:16:12.310Z,0.30
2022-07-28T01:18:48.025Z,0.30
2022-07-28T01:21:19.963Z,0.30
2022-07-28T01:23:58.755Z,0.20
2022-07-28T01:26:38.743Z,0.28
2022-07-28T01:29:30.000Z,0.52
2022-07-28T01:32:03.802Z,0.20
2022-07-28T01:34:49.029Z,0.30
2022-07-28T01:37:19.860Z,0.22
2022-07-28T01:39:47.472Z,0.28
2022-07-28T01:42:15.669Z,0.30
2022-07-28T01:44:47.555Z,0.30
2022-07-28T01:47:15.345Z,0.20
2022-07-28T01:49:45.071Z,0.35
2022-07-28T01:52:11.727Z,0.30
2022-07-28T01:54:41.929Z,0.40
2022-07-28T01:57:14.428Z,0.30
2022-07-28T01:59:42.755Z,0.30
2022-07-28T02:02:11.156Z,0.30
2022-07-28T02:04:40.555Z,0.30
2022-07-28T02:07:10.311Z,0.20
2022-07-28T02:09:38.080Z,0.30
2022-07-28T02:12:05.980Z,0.30
2022-07-28T02:14:36.285Z,0.38
2022-07-28T02:17:08.415Z,0.50
2022-07-28T02:19:36.936Z,0.30
2022-07-28T02:22:06.194Z,0.25
2022-07-28T02:24:34.854Z,0.20
2022-07-28T02:27:10.036Z,0.30
2022-07-28T02:29:51.282Z,0.30
2022-07-28T02:32:52.369Z,0.30
2022-07-28T02:35:40.496Z,0.20
2022-07-28T02:38:17.724Z,0.35
2022-07-28T02:40:46.454Z,0.30
2022-07-28T02:43:17.960Z,0.20
2022-07-28T02:45:51.730Z,0.50
2022-07-28T02:48:23.349Z,0.30
2022-07-28T02:50:52.982Z,0.35
2022-07-28T02:53:22.389Z,0.40
2022-07-28T02:55:50.231Z,0.20
2022-07-28T02:58:22.405Z,0.60
2022-07-28T03:00:50.680Z,0.40
2022-07-28T03:03:18.504Z,0.30
2022-07-28T03:05:46.236Z,0.32
2022-07-28T03:08:14.116Z,0.35
2022-07-28T03:10:41.835Z,0.40
2022-07-28T03:13:08.702Z,0.50
2022-07-28T03:15:36.953Z,0.20
2022-07-28T03:18:05.540Z,0.20
2022-07-28T03:20:32.502Z,0.30
2022-07-28T03:22:59.472Z,0.30
2022-07-28T03:25:41.301Z,0.30
2022-07-28T03:28:13.031Z,0.30
2022-07-28T03:30:42.933Z,0.40
2022-07-28T03:33:09.955Z,0.30
2022-07-28T03:35:39.754Z,0.45
2022-07-28T03:38:14.524Z,0.30
2022-07-28T03:40:46.553Z,0.25
2022-07-28T03:43:16.463Z,0.40
2022-07-28T03:45:46.454Z,0.20
2022-07-28T03:48:14.890Z,0.30
2022-07-28T03:50:41.731Z,0.30
2022-07-28T03:53:35.173Z,0.30
2022-07-28T03:56:03.299Z,0.20
2022-07-28T03:58:30.776Z,0.30
2022-07-28T04:00:58.218Z,0.30
2022-07-28T04:03:42.637Z,0.30
2022-07-28T04:06:10.840Z,0.30
2022-07-28T04:08:37.639Z,0.40
2022-07-28T04:11:04.272Z,0.40
2022-07-28T04:13:36.489Z,0.20
2022-07-28T04:16:03.520Z,0.55
2022-07-28T04:18:30.214Z,0.20
2022-07-28T04:20:56.923Z,0.30
2022-07-28T04:23:24.187Z,0.30
2022-07-28T04:25:50.908Z,0.28
2022-07-28T04:28:17.618Z,0.30
2022-07-28T04:30:44.883Z,0.30
2022-07-28T04:33:13.860Z,0.30
2022-07-28T04:35:42.857Z,0.30
2022-07-28T04:38:09.537Z,0.30
2022-07-28T04:40:36.225Z,0.30
2022-07-28T04:43:03.881Z,0.30
2022-07-28T04:45:30.834Z,0.30
2022-07-28T04:47:57.524Z,0.20
2022-07-28T04:50:24.250Z,0.40
2022-07-28T04:52:58.697Z,0.63
2022-07-28T04:55:26.065Z,0.40
2022-07-28T04:57:52.738Z,0.40
2022-07-28T05:00:19.973Z,0.40
2022-07-28T05:02:50.038Z,0.30
2022-07-28T05:05:16.942Z,0.38
2022-07-28T05:07:44.185Z,0.30
2022-07-28T05:10:12.391Z,0.30
2022-07-28T05:12:39.466Z,0.57
2022-07-28T05:15:07.417Z,0.32
2022-07-28T05:17:34.350Z,0.30
2022-07-28T05:20:01.038Z,0.63
2022-07-28T05:22:47.647Z,0.30
2022-07-28T05:25:18.700Z,0.50
2022-07-28T05:27:46.542Z,0.50
2022-07-28T05:30:14.322Z,0.40
2022-07-28T05:32:41.673Z,0.47
2022-07-28T05:35:12.399Z,0.90
2022-07-28T05:37:39.055Z,0.50
2022-07-28T05:40:11.837Z,0.50
2022-07-28T05:42:39.921Z,0.40
2022-07-28T05:45:15.013Z,0.40
2022-07-28T05:47:46.348Z,0.40
2022-07-28T05:50:14.990Z,0.47
2022-07-28T05:52:41.824Z,0.40
2022-07-28T05:55:09.806Z,0.40
2022-07-28T05:57:37.569Z,0.57
2022-07-28T06:00:09.514Z,0.52
2022-07-28T06:02:40.230Z,0.40
2022-07-28T06:05:07.815Z,0.50
2022-07-28T06:07:43.259Z,0.68
2022-07-28T06:10:16.765Z,0.52
2022-07-28T06:12:46.795Z,0.40
2022-07-28T06:15:15.305Z,0.40
2022-07-28T06:17:42.345Z,0.60
2022-07-28T06:20:10.244Z,0.50
2022-07-28T06:22:47.773Z,0.50
2022-07-28T06:25:16.773Z,0.60
2022-07-28T06:27:45.710Z,0.50
2022-07-28T06:30:12.911Z,0.80
2022-07-28T06:32:39.748Z,0.60
2022-07-28T06:35:07.044Z,0.90
2022-07-28T06:37:33.754Z,0.75
2022-07-28T06:40:00.518Z,0.50
2022-07-28T06:42:27.480Z,0.80
2022-07-28T06:45:01.291Z,0.70
2022-07-28T06:47:27.949Z,0.70
2022-07-28T06:49:54.591Z,0.80
2022-07-28T06:52:22.072Z,0.70
2022-07-28T06:54:51.611Z,0.73
2022-07-28T06:57:21.118Z,0.82
2022-07-28T06:59:49.567Z,0.70
2022-07-28T07:02:17.628Z,1.00
2022-07-28T07:04:45.442Z,0.80
2022-07-28T07:07:17.122Z,1.75
2022-07-28T07:09:44.418Z,0.88
2022-07-28T07:12:11.127Z,1.02
2022-07-28T07:14:37.886Z,1.00
2022-07-28T07:17:04.580Z,0.90
2022-07-28T07:19:31.318Z,1.00
2022-07-28T07:21:58.004Z,0.90
2022-07-28T07:24:24.762Z,1.23
2022-07-28T07:26:51.780Z,1.20
2022-07-28T07:29:19.801Z,1.48
2022-07-28T07:31:46.627Z,1.20
2022-07-28T07:34:19.507Z,1.08
2022-07-28T07:36:46.305Z,1.40
2022-07-28T07:39:13.458Z,1.30
2022-07-28T07:41:40.158Z,1.90
2022-07-28T07:44:07.210Z,1.75
2022-07-28T07:46:36.263Z,1.38
2022-07-28T07:49:03.084Z,1.52
2022-07-28T07:51:29.780Z,1.50
2022-07-28T07:53:56.525Z,1.58
2022-07-28T07:56:23.217Z,1.85
2022-07-28T07:58:56.456Z,1.92
2022-07-28T08:01:23.616Z,1.75
2022-07-28T08:03:50.680Z,2.00
2022-07-28T08:06:17.876Z,1.95
2022-07-28T08:08:59.444Z,1.90
2022-07-28T08:11:26.210Z,1.70
2022-07-28T08:13:52.966Z,2.10
2022-07-28T08:16:19.918Z,1.73
2022-07-28T08:18:46.651Z,2.47
2022-07-28T08:21:14.617Z,2.10
2022-07-28T08:23:41.467Z,2.05
2022-07-28T08:26:08.256Z,2.33
2022-07-28T08:28:35.174Z,1.98
2022-07-28T08:31:02.103Z,2.20
2022-07-28T08:33:28.914Z,2.25
2022-07-28T08:35:55.609Z,1.63
2022-07-28T08:38:22.320Z,2.45
2022-07-28T08:40:50.155Z,2.10
2022-07-28T08:43:33.548Z,2.28
2022-07-28T08:46:02.241Z,1.77
2022-07-28T08:48:36.955Z,2.08
2022-07-28T08:51:09.387Z,2.17
2022-07-28T08:53:38.142Z,4.18
2022-07-28T08:56:07.522Z,2.67
2022-07-28T08:58:35.984Z,2.45
2022-07-28T09:01:03.792Z,2.25
2022-07-28T09:03:30.612Z,2.15
2022-07-28T09:05:57.923Z,2.53
2022-07-28T09:08:25.347Z,2.50
2022-07-28T09:10:52.730Z,3.08
2022-07-28T09:13:19.705Z,2.25
2022-07-28T09:15:46.880Z,2.60
2022-07-28T09:18:14.980Z,2.30
2022-07-28T09:20:44.027Z,2.17
2022-07-28T09:23:41.938Z,2.30
2022-07-28T09:26:12.365Z,2.63
2022-07-28T09:28:51.619Z,2.22
2022-07-28T09:31:19.567Z,2.45
2022-07-28T09:34:00.998Z,2.10
2022-07-28T09:36:30.017Z,2.03
2022-07-28T09:38:56.912Z,2.22
2022-07-28T09:41:24.225Z,2.08
2022-07-28T09:43:55.247Z,2.00
2022-07-28T09:46:25.678Z,1.77
2022-07-28T09:48:58.110Z,1.83
2022-07-28T09:51:28.073Z,2.00
2022-07-28T09:54:13.295Z,1.98
2022-07-28T09:56:45.665Z,1.67
2022-07-28T09:59:15.094Z,1.80
2022-07-28T10:01:54.020Z,1.90
2022-07-28T10:04:41.276Z,1.60
2022-07-28T10:07:11.335Z,1.80
2022-07-28T10:09:39.169Z,2.13
2022-07-28T10:12:17.886Z,1.55
2022-07-28T10:14:46.345Z,2.00
2022-07-28T10:17:27.778Z,1.52
2022-07-28T10:19:58.338Z,1.60
2022-07-28T10:22:32.963Z,1.75
2022-07-28T10:25:02.528Z,1.83
2022-07-28T10:27:30.317Z,2.00
2022-07-28T10:30:00.143Z,1.50
2022-07-28T10:32:29.615Z,1.92
2022-07-28T10:35:02.722Z,2.00
2022-07-28T10:37:32.068Z,1.70
2022-07-28T10:40:09.805Z,2.05
2022-07-28T10:42:40.215Z,1.70
2022-07-28T10:45:10.060Z,1.50
2022-07-28T10:47:36.820Z,1.73
2022-07-28T10:50:04.289Z,2.05
2022-07-28T10:52:51.315Z,1.90
2022-07-28T10:55:46.455Z,1.80
2022-07-28T10:58:24.999Z,2.00
2022-07-28T11:01:02.170Z,2.15
2022-07-28T11:03:40.449Z,1.67
2022-07-28T11:06:36.970Z,1.63
2022-07-28T11:09:15.770Z,1.73
2022-07-28T11:11:57.828Z,2.17
2022-07-28T11:14:37.598Z,2.40
2022-07-28T11:17:04.659Z,2.10
2022-07-28T11:19:55.726Z,2.20
2022-07-28T11:22:32.858Z,2.00
2022-07-28T11:25:18.486Z,1.83
2022-07-28T11:27:49.709Z,1.90
2022-07-28T11:30:16.362Z,2.15
2022-07-28T11:32:53.394Z,1.92
2022-07-28T11:35:24.411Z,1.90
2022-07-28T11:38:03.182Z,2.00
2022-07-28T11:40:38.239Z,2.08
2022-07-28T11:43:30.636Z,2.10
2022-07-28T11:46:07.642Z,2.08
2022-07-28T11:48:42.871Z,1.83
2022-07-28T11:51:15.918Z,1.92
2022-07-28T11:53:50.740Z,1.92
2022-07-28T11:56:36.075Z,1.70
2022-07-28T11:59:04.723Z,1.80
2022-07-28T12:01:32.531Z,1.98
2022-07-28T12:04:12.256Z,1.90
2022-07-28T12:06:43.079Z,1.83
2022-07-28T12:09:11.301Z,2.15
2022-07-28T12:11:42.314Z,1.88
2022-07-28T12:14:18.485Z,2.00
2022-07-28T12:16:49.648Z,2.30
2022-07-28T12:19:19.007Z,1.95
2022-07-28T12:21:50.495Z,2.20
2022-07-28T12:24:20.268Z,1.90
2022-07-28T12:26:49.983Z,1.80
2022-07-28T12:29:19.870Z,2.05
2022-07-28T12:32:02.693Z,1.88
2022-07-28T12:34:31.302Z,1.90
2022-07-28T12:37:01.930Z,1.80
2022-07-28T12:39:30.873Z,2.15
2022-07-28T12:42:05.702Z,2.13
2022-07-28T12:44:40.440Z,1.83
2022-07-28T12:47:10.805Z,2.00
2022-07-28T12:49:40.597Z,1.83
2022-07-28T12:52:21.609Z,2.33
2022-07-28T12:54:53.357Z,1.90
2022-07-28T12:57:50.509Z,1.80
2022-07-28T13:00:20.613Z,2.05
2022-07-28T13:02:48.950Z,1.65
2022-07-28T13:05:27.500Z,2.05
2022-07-28T13:08:02.460Z,1.55
2022-07-28T13:10:30.223Z,1.80
2022-07-28T13:13:06.431Z,1.80
2022-07-28T13:15:36.172Z,1.73
2022-07-28T13:18:04.885Z,2.10
2022-07-28T13:20:36.588Z,1.67
2022-07-28T13:23:03.237Z,1.83
2022-07-28T13:25:30.029Z,1.75
2022-07-28T13:27:56.702Z,2.05
2022-07-28T13:30:23.878Z,1.67
2022-07-28T13:32:50.892Z,1.80
2022-07-28T13:35:19.099Z,1.80
2022-07-28T13:37:48.378Z,2.10
2022-07-28T13:40:15.171Z,1.90
2022-07-28T13:42:52.982Z,2.03
2022-07-28T13:45:24.366Z,1.85
2022-07-28T13:47:52.202Z,1.83
2022-07-28T13:50:20.590Z,1.83
2022-07-28T13:52:48.361Z,1.75
2022-07-28T13:55:15.972Z,1.90
2022-07-28T13:57:45.919Z,1.60
2022-07-28T14:00:18.110Z,2.08
2022-07-28T14:02:48.628Z,1.90
2022-07-28T14:05:15.956Z,2.00
2022-07-28T14:07:48.030Z,2.00
2022-07-28T14:10:17.787Z,1.73
2022-07-28T14:12:44.935Z,1.85
2022-07-28T14:15:12.946Z,2.10
2022-07-28T14:17:45.700Z,2.17
2022-07-28T14:20:16.363Z,1.60
2022-07-28T14:22:44.617Z,2.10
2022-07-28T14:25:19.786Z,1.77
2022-07-28T14:27:49.028Z,1.92
2022-07-28T14:30:15.688Z,2.08
2022-07-28T14:32:42.486Z,2.10
2022-07-28T14:35:09.444Z,2.00
2022-07-28T14:38:11.294Z,1.50
2022-07-28T14:40:23.722Z,1.98
2022-07-28T14:42:50.365Z,2.10
2022-07-28T14:45:17.067Z,1.70
2022-07-28T14:47:44.967Z,2.17
2022-07-28T14:50:12.601Z,2.00
2022-07-28T14:52:39.328Z,1.70
2022-07-28T14:55:06.617Z,1.85
2022-07-28T14:57:50.117Z,2.25
2022-07-28T15:00:21.599Z,2.10
2022-07-28T15:02:48.451Z,1.90
2022-07-28T15:05:15.236Z,2.00
2022-07-28T15:07:42.396Z,1.92
2022-07-28T15:10:10.462Z,2.30
2022-07-28T15:12:37.712Z,1.92
2022-07-28T15:15:05.328Z,1.88
2022-07-28T15:17:32.065Z,1.90
2022-07-28T15:19:59.909Z,2.20
2022-07-28T15:22:26.778Z,2.10
2022-07-28T15:24:53.542Z,2.03
2022-07-28T15:27:20.322Z,1.80
2022-07-28T15:29:48.028Z,2.00
2022-07-28T15:32:19.597Z,1.95
2022-07-28T15:34:53.860Z,2.00
2022-07-28T15:37:20.566Z,1.92
2022-07-28T15:39:47.651Z,1.95
2022-07-28T15:42:14.846Z,1.90
2022-07-28T15:44:41.623Z,2.13
2022-07-28T15:47:08.415Z,1.88
2022-07-28T15:49:36.145Z,1.88
2022-07-28T15:52:04.334Z,2.17
2022-07-28T15:54:31.198Z,2.10
2022-07-28T15:56:57.980Z,1.90
2022-07-28T15:59:25.421Z,1.90
2022-07-28T16:01:52.192Z,1.70
2022-07-28T16:04:19.240Z,2.20
2022-07-28T16:07:04.694Z,2.05
2022-07-28T16:09:46.448Z,2.30
2022-07-28T16:12:14.609Z,1.98
2022-07-28T16:14:42.345Z,2.28
2022-07-28T16:17:09.860Z,1.90
2022-07-28T16:19:48.401Z,2.05
2022-07-28T16:22:17.169Z,2.22
2022-07-28T16:24:44.044Z,1.90
2022-07-28T16:27:10.798Z,1.75
2022-07-28T16:29:38.035Z,1.95
2022-07-28T16:32:05.400Z,1.95
2022-07-28T16:34:32.360Z,1.98
2022-07-28T16:36:59.016Z,2.03
2022-07-28T16:39:25.804Z,2.33
2022-07-28T16:41:53.123Z,1.88
2022-07-28T16:44:20.423Z,1.92
2022-07-28T16:46:47.557Z,1.92
2022-07-28T16:49:15.956Z,2.20
2022-07-28T16:51:42.853Z,1.95
2022-07-28T16:54:09.635Z,1.95
2022-07-28T16:56:36.367Z,2.13
2022-07-28T16:59:03.493Z,2.10
2022-07-28T17:01:30.185Z,2.10
2022-07-28T17:03:56.892Z,2.15
2022-07-28T17:06:23.544Z,1.95
2022-07-28T17:08:50.350Z,1.67
2022-07-28T17:11:17.300Z,2.22
2022-07-28T17:13:45.578Z,2.15
2022-07-28T17:16:13.411Z,2.13
2022-07-28T17:18:42.494Z,1.63
2022-07-28T17:21:09.165Z,1.98
2022-07-28T17:23:39.299Z,2.03
2022-07-28T17:28:54.032Z,1.83
2022-07-28T17:31:21.163Z,1.67
2022-07-28T17:33:47.930Z,1.83
2022-07-28T17:36:17.620Z,2.00
2022-07-28T17:38:44.401Z,1.85
2022-07-28T17:41:11.185Z,1.90
2022-07-28T17:43:42.303Z,2.03
2022-07-28T17:46:11.939Z,2.10
2022-07-28T17:48:39.856Z,2.10
2022-07-28T17:51:06.730Z,2.28
2022-07-28T17:53:33.678Z,2.00
2022-07-28T17:56:06.998Z,1.95
2022-07-28T17:58:36.218Z,1.55
2022-07-28T18:01:10.629Z,1.70
2022-07-28T18:03:59.189Z,1.92
2022-07-28T18:06:40.339Z,1.92
2022-07-28T18:09:13.412Z,1.80
2022-07-28T18:11:56.835Z,1.80
2022-07-28T18:14:27.135Z,1.50
2022-07-28T18:16:54.889Z,1.80
2022-07-28T18:19:23.361Z,1.40
2022-07-28T18:22:02.712Z,1.40
2022-07-28T18:24:29.422Z,1.75
2022-07-28T18:26:56.088Z,1.65
2022-07-28T18:29:23.032Z,1.60
2022-07-28T18:31:57.749Z,1.50
2022-07-28T18:34:26.663Z,1.80
2022-07-28T18:36:56.709Z,1.60
2022-07-28T18:39:30.939Z,1.80
2022-07-28T18:41:57.748Z,1.65
2022-07-28T18:44:24.616Z,1.58
2022-07-28T18:46:51.662Z,1.83
2022-07-28T18:49:19.936Z,2.05
2022-07-28T18:51:49.346Z,1.40
2022-07-28T18:54:21.538Z,2.25
2022-07-28T18:57:11.955Z,1.50
2022-07-28T18:59:43.866Z,1.63
2022-07-28T19:02:13.922Z,1.30
2022-07-28T19:04:42.064Z,1.63
2022-07-28T19:07:08.960Z,1.40
2022-07-28T19:09:38.904Z,1.60
2022-07-28T19:12:09.368Z,1.67
2022-07-28T19:14:36.322Z,1.40
2022-07-28T19:17:05.544Z,1.27
2022-07-28T19:19:38.708Z,1.40
2022-07-28T19:22:07.337Z,1.40
2022-07-28T19:24:35.190Z,1.45
2022-07-28T19:27:05.181Z,1.35
2022-07-28T19:29:32.606Z,1.50
2022-07-28T19:32:01.624Z,1.40
2022-07-28T19:34:28.409Z,1.13
2022-07-28T19:36:56.231Z,1.38
2022-07-28T19:39:23.506Z,1.17
2022-07-28T19:41:50.296Z,1.42
2022-07-28T19:44:17.522Z,1.17
2022-07-28T19:46:45.385Z,1.40
2022-07-28T19:49:12.747Z,1.33
2022-07-28T19:51:44.188Z,1.33
2022-07-28T19:54:13.184Z,1.27
2022-07-28T19:56:42.246Z,1.30
2022-07-28T19:59:09.634Z,1.20
2022-07-28T20:01:36.544Z,1.20
2022-07-28T20:04:12.935Z,1.40
2022-07-28T20:06:39.772Z,1.23
2022-07-28T20:09:06.626Z,0.93
2022-07-28T20:11:33.773Z,1.27
2022-07-28T20:14:01.230Z,1.10
2022-07-28T20:16:28.223Z,1.17
2022-07-28T20:18:56.866Z,1.40
2022-07-28T20:21:24.878Z,0.90
2022-07-28T20:23:56.923Z,1.33
2022-07-28T20:26:26.664Z,1.38
2022-07-28T20:28:55.445Z,1.00
2022-07-28T20:31:22.279Z,1.20
2022-07-28T20:33:50.225Z,0.80
2022-07-28T20:36:16.980Z,1.02
2022-07-28T20:38:45.169Z,1.08
2022-07-28T20:41:12.325Z,0.80
2022-07-28T20:43:41.518Z,1.02
2022-07-28T20:46:08.450Z,0.80
2022-07-28T20:48:35.761Z,0.93
2022-07-28T20:51:02.533Z,1.10
2022-07-28T20:53:29.221Z,1.10
2022-07-28T20:55:56.056Z,1.15
2022-07-28T20:58:22.759Z,0.80
2022-07-28T21:00:50.847Z,0.80
2022-07-28T21:03:17.912Z,1.02
2022-07-28T21:05:44.617Z,0.93
2022-07-28T21:08:16.186Z,1.08
2022-07-28T21:10:44.228Z,1.13
2022-07-28T21:13:11.311Z,1.65
2022-07-28T21:15:38.119Z,0.70
2022-07-28T21:18:05.019Z,0.75
2022-07-28T21:20:31.854Z,0.80
2022-07-28T21:22:58.601Z,0.80
2022-07-28T21:25:25.301Z,1.27
2022-07-28T21:28:10.950Z,1.35
2022-07-28T21:30:38.063Z,1.00
2022-07-28T21:33:05.391Z,1.20
2022-07-28T21:35:32.161Z,1.25
2022-07-28T21:37:59.430Z,0.88
2022-07-28T21:40:26.323Z,1.35
2022-07-28T21:42:53.076Z,1.00
2022-07-28T21:45:19.955Z,1.05
2022-07-28T21:47:46.777Z,1.20
2022-07-28T21:50:14.058Z,1.15
2022-07-28T21:52:40.822Z,1.25
2022-07-28T21:55:09.347Z,1.13
2022-07-28T21:57:36.326Z,0.90
2022-07-28T22:00:06.612Z,1.05
2022-07-28T22:02:33.517Z,1.05
2022-07-28T22:05:01.016Z,1.50
2022-07-28T22:07:28.094Z,0.90
2022-07-28T22:09:54.853Z,1.20
2022-07-28T22:12:21.631Z,0.90
2022-07-28T22:14:48.328Z,1.50
2022-07-28T22:17:14.969Z,1.60
2022-07-28T22:19:41.786Z,1.05
2022-07-28T22:22:08.605Z,1.95
2022-07-28T22:24:35.332Z,1.30
2022-07-28T22:27:34.579Z,1.60
2022-07-28T22:30:02.835Z,1.85
2022-07-28T22:32:29.603Z,1.55
2022-07-28T22:34:58.146Z,1.73
2022-07-28T22:37:24.868Z,2.10
2022-07-28T22:39:51.728Z,1.67
2022-07-28T22:42:18.418Z,2.20
2022-07-28T22:45:06.406Z,2.15
2022-07-28T22:47:33.051Z,2.28
2022-07-28T22:49:59.702Z,2.20
2022-07-28T22:52:27.992Z,2.25
2022-07-28T22:54:55.150Z,2.63
2022-07-28T22:57:22.082Z,2.10
2022-07-28T22:59:51.068Z,2.20
2022-07-28T23:02:18.662Z,2.50
2022-07-28T23:04:51.135Z,2.38
2022-07-28T23:07:18.414Z,2.65
2022-07-28T23:09:45.128Z,2.67
2022-07-28T23:12:11.839Z,2.42
2022-07-28T23:14:38.582Z,2.33
2022-07-28T23:17:05.311Z,2.30
2022-07-28T23:19:31.991Z,1.90
2022-07-28T23:21:58.708Z,2.50
2022-07-28T23:24:25.481Z,2.38
2022-07-28T23:26:52.139Z,2.40
2022-07-28T23:29:18.790Z,2.70
2022-07-28T23:31:45.481Z,2.03
2022-07-28T23:34:12.219Z,2.50
2022-07-28T23:36:38.904Z,2.78
2022-07-28T23:39:05.554Z,2.72
2022-07-28T23:41:32.282Z,2.40
2022-07-28T23:43:59.214Z,2.80
2022-07-28T23:46:25.907Z,2.30
2022-07-28T23:48:52.754Z,2.17
2022-07-28T23:51:21.049Z,2.63
2022-07-28T23:53:49.888Z,2.60
2022-07-28T23:56:19.676Z,2.50
2022-07-28T23:58:46.285Z,2.47
